Time;durP1;ratioP1;P1;durP2;ratioP2;P2;SDS_P1;SDS_P2;PMS_P1;PMS_P2;Temp;Humidity;BMP_temperature;BMP_pressure;BME280_temperature;BME280_humidity;BME280_pressure;Samples;Min_cycle;Max_cycle;Signal;HPM_P1;HPM_P2
2023/05/01 00:01:31;;;;;;;6.57;3.10;;;;;;;14.70;55.98;101644.72;5037563;28;20031;-63
2023/05/01 00:03:57;;;;;;;6.10;3.03;;;;;;;14.66;56.56;101636.69;5054909;28;20048;-63
2023/05/01 00:06:23;;;;;;;6.72;3.42;;;;;;;14.62;56.27;101643.75;5055232;28;20025;-63
2023/05/01 00:08:48;;;;;;;5.90;3.15;;;;;;;14.64;56.96;101635.78;5055287;28;20017;-64
2023/05/01 00:11:14;;;;;;;8.48;3.20;;;;;;;14.61;56.22;101634.00;5055006;28;20033;-63
2023/05/01 00:13:40;;;;;;;5.50;3.25;;;;;;;14.65;56.31;101625.16;5037130;28;20037;-63
2023/05/01 00:16:09;;;;;;;6.32;3.13;;;;;;;14.67;56.45;101622.50;5055061;28;20033;-63
2023/05/01 00:18:34;;;;;;;5.90;3.17;;;;;;;14.65;56.16;101621.63;5055245;28;20029;-63
2023/05/01 00:21:00;;;;;;;6.88;3.20;;;;;;;14.70;56.20;101627.84;5036990;28;20129;-63
2023/05/01 00:23:25;;;;;;;7.50;3.53;;;;;;;14.65;56.47;101617.19;5054953;28;20033;-64
2023/05/01 00:25:50;;;;;;;6.20;3.22;;;;;;;14.70;56.52;101614.56;5055141;28;20029;-64
2023/05/01 00:28:17;;;;;;;6.93;3.15;;;;;;;14.72;56.50;101613.66;5037376;28;20080;-63
2023/05/01 00:30:44;;;;;;;7.82;3.13;;;;;;;14.72;56.96;101603.03;5037226;28;20025;-63
2023/05/01 00:33:09;;;;;;;7.45;3.20;;;;;;;14.70;56.69;101609.22;5037223;28;20106;-63
2023/05/01 00:35:35;;;;;;;5.53;2.90;;;;;;;14.74;56.70;101603.94;5054771;28;20065;-63
2023/05/01 00:38:00;;;;;;;6.65;3.38;;;;;;;14.76;57.02;101606.59;5054565;28;20021;-63
2023/05/01 00:40:26;;;;;;;5.72;3.10;;;;;;;14.70;56.59;101604.81;5054769;28;20025;-63
2023/05/01 00:42:52;;;;;;;5.68;3.13;;;;;;;14.74;56.75;101600.41;5054585;28;20031;-64
2023/05/01 00:45:18;;;;;;;6.10;3.30;;;;;;;14.73;56.80;101599.50;5054290;28;20028;-63
2023/05/01 00:47:44;;;;;;;5.72;3.17;;;;;;;14.65;56.68;101593.25;5054228;28;20025;-63
2023/05/01 00:50:10;;;;;;;6.03;3.33;;;;;;;14.65;56.90;101595.03;5054333;28;20021;-63
2023/05/01 00:52:36;;;;;;;7.78;3.20;;;;;;;14.63;57.03;101587.00;5054284;28;20359;-63
2023/05/01 00:55:04;;;;;;;5.18;3.38;;;;;;;14.61;56.97;101577.25;5054628;28;20108;-63
2023/05/01 00:57:30;;;;;;;10.07;3.40;;;;;;;14.62;57.07;101584.34;5036748;28;20533;-63
2023/05/01 00:59:55;;;;;;;6.13;3.17;;;;;;;14.51;57.48;101576.28;5054515;28;20120;-63
2023/05/01 01:02:22;;;;;;;6.95;3.10;;;;;;;14.52;57.47;101578.09;5054406;28;20032;-63
2023/05/01 01:04:47;;;;;;;6.47;3.20;;;;;;;14.43;57.70;101575.31;5053502;28;20060;-63
2023/05/01 01:07:25;;;;;;;4.40;3.13;;;;;;;14.50;57.55;101574.53;5054009;28;20028;-63
2023/05/01 01:10:17;;;;;;;6.82;3.40;;;;;;;14.45;57.91;101569.16;5053970;28;20029;-63
2023/05/01 01:12:57;;;;;;;6.28;3.25;;;;;;;14.50;57.86;101564.78;5054296;28;20033;-63
2023/05/01 01:15:48;;;;;;;6.63;3.20;;;;;;;14.57;57.58;101568.38;5054294;28;20029;-64
2023/05/01 01:18:47;;;;;;;5.35;3.17;;;;;;;14.60;57.20;101568.38;5053904;28;20033;-63
2023/05/01 01:21:22;;;;;;;5.60;3.38;;;;;;;14.55;57.17;101559.47;5053665;28;20021;-63
2023/05/01 01:24:15;;;;;;;6.10;3.20;;;;;;;14.58;57.46;101548.88;5053622;28;20367;-63
2023/05/01 01:27:01;;;;;;;6.43;3.25;;;;;;;14.55;57.66;101551.50;5035881;28;20017;-63
2023/05/01 01:30:01;;;;;;;5.75;3.17;;;;;;;14.51;57.68;101552.34;5053605;28;20478;-63
2023/05/01 01:32:50;;;;;;;7.28;3.45;;;;;;;14.41;57.91;101545.19;5045452;28;20033;-63
2023/05/01 01:35:19;;;;;;;10.52;3.40;;;;;;;14.28;58.79;101536.25;5036308;28;20558;-63
2023/05/01 01:37:56;;;;;;;6.43;3.50;;;;;;;14.12;58.98;101529.03;5053688;28;20111;-63
2023/05/01 01:40:50;;;;;;;7.47;3.25;;;;;;;14.07;59.27;101529.00;5053450;28;20025;-63
2023/05/01 01:43:18;;;;;;;5.22;3.42;;;;;;;13.96;59.28;101522.72;5045045;28;20029;-63
2023/05/01 01:45:48;;;;;;;5.28;3.53;;;;;;;13.91;59.35;101524.44;5053479;28;20036;-63
2023/05/01 01:48:24;;;;;;;5.82;3.17;;;;;;;13.93;59.26;101512.09;5053366;28;20072;-63
2023/05/01 01:50:53;;;;;;;8.18;3.50;;;;;;;13.94;59.39;101514.75;5053197;28;20060;-63
2023/05/01 01:53:20;;;;;;;10.10;3.72;;;;;;;13.93;59.22;101507.66;5035571;28;20029;-63
2023/05/01 01:55:47;;;;;;;10.10;3.70;;;;;;;13.89;59.53;101505.84;5053198;28;20022;-63
2023/05/01 01:58:15;;;;;;;7.38;3.58;;;;;;;13.83;59.64;101504.91;5053506;28;20040;-63
2023/05/01 02:00:43;;;;;;;6.35;3.58;;;;;;;13.90;59.89;101499.66;5053270;28;20021;-63
2023/05/01 02:03:09;;;;;;;7.72;3.58;;;;;;;13.89;59.76;101499.66;5052774;28;20033;-63
2023/05/01 02:05:36;;;;;;;6.60;3.58;;;;;;;13.92;59.56;101497.91;5053057;28;20079;-63
2023/05/01 02:08:04;;;;;;;6.78;3.80;;;;;;;13.92;59.92;101495.25;5052786;28;20462;-63
2023/05/01 02:10:31;;;;;;;7.70;3.92;;;;;;;13.88;60.27;101489.91;5052914;28;20398;-64
2023/05/01 02:12:58;;;;;;;6.18;3.53;;;;;;;13.82;60.64;101493.38;5053223;28;20477;-63
2023/05/01 02:15:25;;;;;;;8.00;3.85;;;;;;;13.82;60.54;101488.06;5053050;28;20021;-63
2023/05/01 02:17:51;;;;;;;11.23;3.90;;;;;;;13.80;60.79;101479.22;5052557;28;20025;-63
2023/05/01 02:20:17;;;;;;;6.70;3.80;;;;;;;13.82;60.97;101492.50;5053140;28;20033;-63
2023/05/01 02:22:45;;;;;;;6.18;3.45;;;;;;;13.78;60.81;101487.16;5052671;28;20064;-63
2023/05/01 02:25:12;;;;;;;7.65;3.80;;;;;;;13.78;60.98;101488.91;5053091;28;20029;-63
2023/05/01 02:27:46;;;;;;;7.53;3.63;;;;;;;13.76;60.63;101485.38;5052781;28;20022;-63
2023/05/01 02:30:11;;;;;;;6.72;3.80;;;;;;;13.74;61.09;101477.38;5052209;28;20454;-63
2023/05/01 02:32:37;;;;;;;6.82;3.65;;;;;;;13.69;60.98;101473.81;5052272;28;20036;-63
2023/05/01 02:35:02;;;;;;;7.50;3.53;;;;;;;13.67;61.46;101470.25;5052320;28;20036;-63
2023/05/01 02:37:29;;;;;;;6.90;3.80;;;;;;;13.69;61.23;101475.56;5052643;28;20037;-62
2023/05/01 02:39:55;;;;;;;6.07;3.38;;;;;;;13.70;61.30;101464.06;5052742;28;20040;-63
2023/05/01 02:42:23;;;;;;;6.70;3.60;;;;;;;13.63;61.14;101464.91;5052665;28;20381;-63
2023/05/01 02:45:03;;;;;;;8.23;4.00;;;;;;;13.59;61.29;101456.03;5052676;28;20414;-63
2023/05/01 02:47:30;;;;;;;7.80;3.50;;;;;;;13.48;61.61;101458.56;5052778;28;20065;-63
2023/05/01 02:49:59;;;;;;;7.07;4.10;;;;;;;13.40;61.92;101456.72;5052818;28;20032;-63
2023/05/01 02:52:25;;;;;;;6.72;4.10;;;;;;;13.41;61.94;101458.53;5052624;28;20027;-63
2023/05/01 02:54:50;;;;;;;6.60;3.88;;;;;;;13.40;62.05;101454.06;5052530;28;20112;-63
2023/05/01 02:57:17;;;;;;;9.55;3.85;;;;;;;13.38;62.32;101443.47;5034675;28;20029;-63
2023/05/01 02:59:43;;;;;;;9.52;4.00;;;;;;;13.32;62.32;101445.16;5052489;28;20045;-63
2023/05/01 03:02:08;;;;;;;8.32;4.50;;;;;;;13.31;62.47;101441.63;5052469;28;20550;-63
2023/05/01 03:04:34;;;;;;;7.50;4.00;;;;;;;13.31;62.27;101431.00;5052166;28;20521;-63
2023/05/01 03:06:59;;;;;;;9.70;3.90;;;;;;;13.34;62.60;101439.00;5052432;28;20393;-63
2023/05/01 03:09:25;;;;;;;6.35;4.03;;;;;;;13.38;62.89;101438.16;5052378;28;20017;-63
2023/05/01 03:11:50;;;;;;;8.50;4.07;;;;;;;13.31;62.74;101431.00;5052652;28;20109;-63
2023/05/01 03:14:16;;;;;;;7.97;3.92;;;;;;;13.34;62.72;101435.47;5052634;28;20043;-63
2023/05/01 03:16:41;;;;;;;6.55;4.03;;;;;;;13.35;62.04;101431.91;5052609;28;20021;-63
2023/05/01 03:19:07;;;;;;;7.97;4.07;;;;;;;13.30;62.58;101428.34;5052561;28;20500;-63
2023/05/01 03:21:32;;;;;;;6.80;3.92;;;;;;;13.36;62.40;101428.38;5052521;28;20560;-64
2023/05/01 03:23:58;;;;;;;7.57;4.10;;;;;;;13.36;62.62;101416.03;5052575;28;20469;-64
2023/05/01 03:26:24;;;;;;;8.43;4.10;;;;;;;13.28;62.62;101421.25;5052296;28;20029;-63
2023/05/01 03:28:49;;;;;;;7.70;4.10;;;;;;;13.27;62.55;101416.84;5055119;28;20033;-62
2023/05/01 03:31:14;;;;;;;7.85;4.15;;;;;;;13.24;63.23;101416.81;5055870;28;20033;-63
2023/05/01 03:33:40;;;;;;;8.68;4.00;;;;;;;13.22;63.08;101407.91;5055917;28;20112;-63
2023/05/01 03:36:07;;;;;;;8.00;3.80;;;;;;;13.22;63.07;101414.97;5056094;28;20463;-63
2023/05/01 03:38:32;;;;;;;8.10;4.65;;;;;;;13.21;63.24;101406.13;5055681;28;20024;-63
2023/05/01 03:40:58;;;;;;;6.25;3.78;;;;;;;13.18;62.99;101402.53;5055892;28;20109;-63
2023/05/01 03:43:25;;;;;;;6.38;3.80;;;;;;;13.17;63.16;101406.06;5055777;28;20082;-63
2023/05/01 03:45:51;;;;;;;8.27;4.00;;;;;;;13.14;63.44;101406.03;5055598;28;20028;-63
2023/05/01 03:48:17;;;;;;;7.57;4.07;;;;;;;13.12;63.28;101406.03;5055655;28;20029;-63
2023/05/01 03:50:43;;;;;;;9.32;3.95;;;;;;;13.10;63.09;101399.81;5055397;28;20025;-63
2023/05/01 03:53:08;;;;;;;10.30;3.92;;;;;;;13.12;63.27;101397.19;5055401;28;20036;-62
2023/05/01 03:55:34;;;;;;;8.48;4.28;;;;;;;13.10;63.76;101399.81;5055470;28;20026;-63
2023/05/01 03:57:59;;;;;;;6.70;4.30;;;;;;;13.12;63.77;101390.13;5055491;28;20025;-63
2023/05/01 04:00:25;;;;;;;5.82;3.88;;;;;;;13.13;63.51;101397.19;5055360;28;20120;-63
2023/05/01 04:02:51;;;;;;;8.98;4.03;;;;;;;13.12;63.63;101400.72;5055332;28;20021;-63
2023/05/01 04:05:17;;;;;;;6.35;4.10;;;;;;;13.13;63.48;101389.22;5055006;28;20387;-63
2023/05/01 04:07:42;;;;;;;8.57;4.32;;;;;;;13.17;63.36;101395.47;5055227;28;20029;-63
2023/05/01 04:10:08;;;;;;;8.05;4.57;;;;;;;13.17;63.64;101390.16;5055267;28;20116;-63
2023/05/01 04:12:34;;;;;;;14.18;4.60;;;;;;;13.15;63.08;101387.50;5055040;28;20057;-63
2023/05/01 04:14:59;;;;;;;8.20;4.13;;;;;;;13.13;63.37;101391.00;5037269;28;20118;-63
2023/05/01 04:17:26;;;;;;;7.60;4.72;;;;;;;13.12;63.36;101391.88;5055126;28;20025;-63
2023/05/01 04:19:52;;;;;;;10.00;4.38;;;;;;;13.04;63.70;101383.84;5055015;28;20486;-63
2023/05/01 04:22:18;;;;;;;8.95;4.75;;;;;;;12.99;64.14;101388.22;5055151;28;20021;-63
2023/05/01 04:24:43;;;;;;;8.20;4.38;;;;;;;13.00;64.33;101390.00;5055009;28;20415;-63
2023/05/01 04:27:10;;;;;;;7.03;4.45;;;;;;;13.08;64.15;101383.00;5037310;28;20028;-63
2023/05/01 04:29:35;;;;;;;8.20;4.60;;;;;;;13.05;64.43;101382.97;5055064;28;20171;-63
2023/05/01 04:32:01;;;;;;;7.82;4.43;;;;;;;13.04;64.25;101382.06;5037088;28;20032;-63
2023/05/01 04:34:28;;;;;;;6.32;4.50;;;;;;;13.12;63.97;101382.16;5054625;28;20536;-63
2023/05/01 04:36:56;;;;;;;10.05;4.70;;;;;;;13.12;63.99;101371.53;5054596;28;20064;-63
2023/05/01 04:39:21;;;;;;;9.48;4.82;;;;;;;13.10;64.24;101383.00;5054257;28;20033;-63
2023/05/01 04:41:47;;;;;;;8.52;4.70;;;;;;;13.14;64.24;101391.00;5054649;28;20032;-63
2023/05/01 04:44:12;;;;;;;8.82;4.85;;;;;;;13.14;64.16;101393.66;5054543;28;20394;-63
2023/05/01 04:46:37;;;;;;;9.55;5.03;;;;;;;13.23;64.13;101404.41;5054551;28;20068;-63
2023/05/01 04:49:03;;;;;;;9.15;5.35;;;;;;;13.36;63.61;101389.47;5054401;28;20021;-64
2023/05/01 04:51:28;;;;;;;7.80;4.78;;;;;;;13.32;63.64;101389.41;5054379;28;20052;-63
2023/05/01 04:53:54;;;;;;;13.70;5.07;;;;;;;13.27;63.83;101400.91;5054481;28;20040;-63
2023/05/01 04:56:20;;;;;;;9.43;4.78;;;;;;;13.30;63.58;101401.81;5054279;28;20502;-63
2023/05/01 04:58:45;;;;;;;9.38;4.93;;;;;;;13.27;63.90;101390.28;5054520;28;20021;-63
2023/05/01 05:01:11;;;;;;;8.60;4.93;;;;;;;13.18;64.23;101387.50;5054387;28;20062;-63
2023/05/01 05:03:36;;;;;;;13.25;4.90;;;;;;;13.10;64.67;101391.84;5035879;28;20139;-64
2023/05/01 05:06:02;;;;;;;9.75;4.50;;;;;;;13.15;65.23;101399.88;5053859;28;20048;-63
2023/05/01 05:08:28;;;;;;;8.05;4.72;;;;;;;13.11;65.09;101388.34;5054028;28;20061;-63
2023/05/01 05:11:00;;;;;;;9.80;5.15;;;;;;;13.09;64.70;101391.84;5054042;28;20029;-63
2023/05/01 05:13:26;;;;;;;12.82;5.20;;;;;;;13.07;64.72;101397.16;5054342;28;20091;-63
2023/05/01 05:15:51;;;;;;;9.13;5.03;;;;;;;13.14;65.00;101398.06;5054035;28;20032;-64
2023/05/01 05:18:17;;;;;;;9.70;4.80;;;;;;;13.19;65.22;101399.00;5053899;28;20025;-63
2023/05/01 05:20:43;;;;;;;9.18;4.85;;;;;;;13.22;65.28;101388.41;5053852;28;20036;-63
2023/05/01 05:23:08;;;;;;;13.35;5.50;;;;;;;13.23;65.64;101390.22;5053657;28;20032;-63
2023/05/01 05:25:34;;;;;;;11.43;5.80;;;;;;;13.27;65.65;101390.28;5053919;28;20112;-63
2023/05/01 05:27:59;;;;;;;10.05;6.05;;;;;;;13.22;65.90;101386.69;5035969;28;20033;-63
2023/05/01 05:30:25;;;;;;;9.73;5.40;;;;;;;13.18;66.29;101391.91;5035810;28;20068;-64
2023/05/01 05:32:50;;;;;;;12.80;5.07;;;;;;;13.20;65.53;101385.75;5053667;28;20507;-63
2023/05/01 05:35:16;;;;;;;10.77;5.63;;;;;;;13.28;65.08;101388.53;5053708;28;20029;-65
2023/05/01 05:37:42;;;;;;;12.02;5.55;;;;;;;13.32;65.32;101387.69;5035702;28;20021;-63
2023/05/01 05:40:08;;;;;;;10.85;5.47;;;;;;;13.33;65.05;101385.91;5035623;28;20040;-62
2023/05/01 05:42:34;;;;;;;10.32;6.03;;;;;;;13.34;65.15;101385.03;5053639;28;20127;-63
2023/05/01 05:44:59;;;;;;;9.10;5.15;;;;;;;13.39;64.92;101380.63;5053447;28;20025;-63
2023/05/01 05:47:24;;;;;;;8.90;5.47;;;;;;;13.39;64.65;101376.22;5053470;28;20032;-63
2023/05/01 05:49:50;;;;;;;9.50;5.55;;;;;;;13.48;65.17;101383.34;5053323;28;20036;-63
2023/05/01 05:52:17;;;;;;;11.18;5.93;;;;;;;13.48;64.65;101375.38;5034495;28;20111;-63
2023/05/01 05:54:42;;;;;;;10.93;5.88;;;;;;;13.48;65.12;101378.03;5053128;28;20029;-63
2023/05/01 05:57:07;;;;;;;11.95;5.78;;;;;;;13.57;64.69;101378.09;5035140;28;20040;-63
2023/05/01 05:59:34;;;;;;;14.02;5.70;;;;;;;13.57;64.41;101370.13;5053561;28;20529;-63
2023/05/01 06:01:59;;;;;;;9.45;5.97;;;;;;;13.58;64.63;101371.06;5053205;28;20033;-63
2023/05/01 06:04:24;;;;;;;12.30;6.80;;;;;;;13.52;64.91;101371.88;5052850;28;20421;-63
2023/05/01 06:06:50;;;;;;;10.90;6.25;;;;;;;13.46;64.92;101379.81;5053006;28;20036;-63
2023/05/01 06:09:17;;;;;;;20.20;7.80;;;;;;;13.50;64.38;101376.31;5052967;28;20029;-63
2023/05/01 06:11:43;;;;;;;11.15;6.40;;;;;;;13.57;65.06;101364.81;5035104;28;20090;-63
2023/05/01 06:14:08;;;;;;;11.95;6.10;;;;;;;13.65;64.02;101364.88;5052973;28;20029;-63
2023/05/01 06:16:34;;;;;;;8.93;5.95;;;;;;;13.75;63.69;101369.41;5053223;28;20040;-63
2023/05/01 06:18:59;;;;;;;11.18;6.15;;;;;;;13.73;63.67;101377.34;5052887;28;20499;-63
2023/05/01 06:21:25;;;;;;;11.75;5.80;;;;;;;13.81;63.62;101384.47;5035284;28;20403;-63
2023/05/01 06:23:51;;;;;;;9.27;6.10;;;;;;;13.89;63.60;101378.31;5052672;28;20029;-63
2023/05/01 06:26:16;;;;;;;10.20;6.03;;;;;;;14.00;63.68;101381.94;5034911;28;20090;-63
2023/05/01 06:28:41;;;;;;;11.77;6.07;;;;;;;14.09;63.25;101374.88;5052649;28;20056;-63
2023/05/01 06:31:07;;;;;;;10.48;6.20;;;;;;;14.07;63.21;101369.56;5052707;28;20067;-63
2023/05/01 06:33:33;;;;;;;9.55;6.25;;;;;;;14.14;63.41;101376.69;5052430;28;20478;-63
2023/05/01 06:35:58;;;;;;;11.93;6.40;;;;;;;14.26;63.26;101371.44;5052690;28;20268;-63
2023/05/01 06:38:27;;;;;;;11.63;6.28;;;;;;;14.34;62.95;101375.88;5034897;28;20029;-63
2023/05/01 06:40:53;;;;;;;10.45;6.53;;;;;;;14.42;63.03;101384.75;5052658;28;20104;-63
2023/05/01 06:43:19;;;;;;;11.73;6.45;;;;;;;14.54;61.41;101382.19;5052649;28;20025;-63
2023/05/01 06:45:44;;;;;;;11.73;6.43;;;;;;;14.61;60.55;101377.78;5052736;28;20052;-63
2023/05/01 06:48:10;;;;;;;10.02;6.18;;;;;;;14.66;60.63;101366.25;5052529;28;20053;-63
2023/05/01 06:50:36;;;;;;;10.80;5.82;;;;;;;14.68;60.86;101375.13;5052411;28;20037;-63
2023/05/01 06:53:01;;;;;;;10.02;6.22;;;;;;;14.74;61.13;101372.50;5034699;28;20036;-62
2023/05/01 06:55:30;;;;;;;10.23;6.30;;;;;;;14.80;60.96;101373.38;5052472;28;20033;-63
2023/05/01 06:57:58;;;;;;;11.52;6.05;;;;;;;14.83;60.69;101360.97;5052472;28;20112;-63
2023/05/01 07:00:24;;;;;;;10.65;7.10;;;;;;;14.88;61.50;101361.88;5052759;28;20021;-63
2023/05/01 07:02:49;;;;;;;10.52;6.13;;;;;;;15.00;60.95;101361.00;5054063;28;20078;-63
2023/05/01 07:05:15;;;;;;;9.57;6.20;;;;;;;15.07;60.63;101364.53;5055932;28;20053;-63
2023/05/01 07:07:40;;;;;;;11.00;6.65;;;;;;;15.05;60.26;101359.22;5056237;28;20413;-64
2023/05/01 07:10:06;;;;;;;12.15;6.65;;;;;;;15.05;61.39;101364.53;5056409;28;20021;-63
2023/05/01 07:12:31;;;;;;;15.02;6.05;;;;;;;15.20;60.88;101376.97;5056498;28;20025;-63
2023/05/01 07:14:56;;;;;;;9.73;6.50;;;;;;;15.39;60.10;101368.09;5038340;28;20032;-63
2023/05/01 07:17:22;;;;;;;10.60;6.60;;;;;;;15.53;58.91;101362.75;5056203;28;20490;-63
2023/05/01 07:19:49;;;;;;;10.30;6.35;;;;;;;15.68;58.92;101367.22;5056242;28;20069;-63
2023/05/01 07:22:14;;;;;;;10.40;6.20;;;;;;;15.89;58.95;101367.16;5056068;28;20033;-63
2023/05/01 07:24:39;;;;;;;12.32;7.35;;;;;;;16.00;59.05;101368.00;5038246;28;20083;-63
2023/05/01 07:27:05;;;;;;;9.13;6.18;;;;;;;16.16;58.26;101362.63;5038272;28;20051;-63
2023/05/01 07:29:30;;;;;;;12.00;6.10;;;;;;;16.24;57.77;101360.81;5055889;28;20039;-63
2023/05/01 07:31:56;;;;;;;8.52;6.18;;;;;;;16.10;56.56;101370.63;5055945;28;20074;-63
2023/05/01 07:34:21;;;;;;;9.30;6.43;;;;;;;16.16;57.23;101363.50;5055728;28;20504;-63
2023/05/01 07:36:46;;;;;;;10.93;6.32;;;;;;;16.40;56.64;101361.59;5055773;28;20029;-63
2023/05/01 07:39:13;;;;;;;11.23;6.07;;;;;;;16.63;56.07;101361.50;5055907;28;20482;-64
2023/05/01 07:41:39;;;;;;;10.98;6.50;;;;;;;16.68;54.84;101373.03;5055969;28;20087;-63
2023/05/01 07:44:04;;;;;;;11.80;6.03;;;;;;;16.73;55.42;101368.56;5055992;28;20493;-63
2023/05/01 07:46:30;;;;;;;15.38;6.25;;;;;;;16.82;54.68;101367.63;5055900;28;20025;-63
2023/05/01 07:48:55;;;;;;;10.35;6.18;;;;;;;16.79;55.32;101371.22;5055889;28;20355;-63
2023/05/01 07:51:21;;;;;;;11.80;6.60;;;;;;;16.88;54.63;101371.16;5055385;28;20390;-63
2023/05/01 07:53:46;;;;;;;9.48;6.28;;;;;;;17.11;54.88;101370.97;5055404;28;20021;-63
2023/05/01 07:56:12;;;;;;;9.60;6.40;;;;;;;17.31;55.01;101365.50;5055586;28;20029;-63
2023/05/01 07:58:39;;;;;;;13.70;6.63;;;;;;;17.56;53.58;101371.50;5055452;28;20470;-63
2023/05/01 08:01:05;;;;;;;9.18;6.30;;;;;;;17.73;55.33;101369.53;5055403;28;20039;-63
2023/05/01 08:03:31;;;;;;;14.40;6.28;;;;;;;17.89;53.89;101369.41;5055267;28;20115;-63
2023/05/01 08:05:57;;;;;;;10.95;6.70;;;;;;;18.13;52.82;101363.78;5055175;28;20049;-63
2023/05/01 08:08:23;;;;;;;12.35;6.88;;;;;;;18.23;52.38;101364.53;5055255;28;20025;-63
2023/05/01 08:10:50;;;;;;;15.20;6.68;;;;;;;18.50;52.65;101366.88;5055089;28;20033;-63
2023/05/01 08:13:16;;;;;;;13.35;7.03;;;;;;;18.81;51.12;101370.94;5055100;28;20071;-63
2023/05/01 08:15:41;;;;;;;11.05;6.97;;;;;;;19.02;50.74;101365.25;5036305;28;20029;-63
2023/05/01 08:18:08;;;;;;;12.55;6.95;;;;;;;19.25;49.98;101367.53;5055332;28;20489;-63
2023/05/01 08:20:35;;;;;;;9.98;6.65;;;;;;;19.49;49.72;101361.75;5055014;28;20540;-63
2023/05/01 08:23:00;;;;;;;12.43;6.72;;;;;;;19.84;47.62;101364.75;5054905;28;20029;-63
2023/05/01 08:25:26;;;;;;;9.95;6.30;;;;;;;19.92;47.56;101350.25;5054968;28;20109;-63
2023/05/01 08:27:51;;;;;;;12.35;7.05;;;;;;;20.16;48.78;101350.66;5054826;28;20028;-63
2023/05/01 08:30:16;;;;;;;11.00;6.28;;;;;;;20.39;46.53;101351.06;5054090;28;20033;-64
2023/05/01 08:32:42;;;;;;;11.75;6.57;;;;;;;20.58;46.26;101354.25;5054796;28;20079;-63
2023/05/01 08:35:07;;;;;;;9.95;6.53;;;;;;;20.70;46.60;101353.09;5054346;28;20535;-63
2023/05/01 08:37:33;;;;;;;11.85;7.03;;;;;;;20.93;47.14;101350.75;5054603;28;20032;-64
2023/05/01 08:39:58;;;;;;;11.68;6.90;;;;;;;21.05;45.51;101346.00;5054606;28;20037;-64
2023/05/01 08:42:24;;;;;;;12.88;7.05;;;;;;;21.21;45.67;101339.34;5054606;28;20021;-64
2023/05/01 08:44:53;;;;;;;8.85;6.75;;;;;;;21.42;45.03;101346.88;5054903;28;20025;-63
2023/05/01 08:47:18;;;;;;;12.20;6.97;;;;;;;21.57;45.67;101347.38;5054486;28;20540;-64
2023/05/01 08:49:45;;;;;;;11.88;6.90;;;;;;;21.71;44.58;101347.88;5036666;28;20048;-63
2023/05/01 08:52:13;;;;;;;12.48;6.90;;;;;;;21.60;44.19;101347.31;5020058;28;20029;-63
2023/05/01 08:54:41;;;;;;;10.90;7.32;;;;;;;21.88;43.96;101352.78;5054417;28;20033;-63
2023/05/01 08:57:08;;;;;;;9.43;7.07;;;;;;;22.10;43.49;101347.69;5054304;28;20021;-63
2023/05/01 08:59:35;;;;;;;16.13;6.70;;;;;;;22.13;42.03;101348.50;5054343;28;20037;-64
2023/05/01 09:02:03;;;;;;;11.27;6.78;;;;;;;22.17;42.17;101352.00;5054334;28;20021;-64
2023/05/01 09:04:34;;;;;;;10.95;6.50;;;;;;;22.21;42.19;101353.69;5053820;28;20098;-63
2023/05/01 09:07:00;;;;;;;12.18;6.18;;;;;;;22.38;41.41;101351.38;5054132;28;20104;-64
2023/05/01 09:09:26;;;;;;;14.30;6.60;;;;;;;;;;5053991;28;20028;-64
2023/05/01 09:11:55;;;;;;;9.55;6.47;;;;;;;22.33;41.60;101353.31;5054050;28;20025;-63
2023/05/01 09:14:21;;;;;;;10.77;6.60;;;;;;;22.19;41.50;101358.25;5054199;28;20059;-64
2023/05/01 09:16:47;;;;;;;11.35;5.95;;;;;;;22.12;42.43;101351.22;5054078;28;20029;-64
2023/05/01 09:19:13;;;;;;;11.18;6.40;;;;;;;22.05;42.84;101360.38;5053969;28;20116;-63
2023/05/01 09:21:39;;;;;;;8.48;6.07;;;;;;;22.00;41.64;101357.84;5053959;28;20119;-64
2023/05/01 09:24:04;;;;;;;10.73;6.30;;;;;;;21.92;42.27;101351.78;5053873;28;20029;-63
2023/05/01 09:26:33;;;;;;;7.88;6.00;;;;;;;21.92;42.54;101352.66;5053622;28;20129;-64
2023/05/01 09:28:59;;;;;;;9.15;6.22;;;;;;;21.85;42.45;101356.47;5053480;28;20148;-64
2023/05/01 09:31:31;;;;;;;10.93;6.28;;;;;;;21.92;41.15;101355.34;5053919;28;20072;-65
2023/05/01 09:34:00;;;;;;;;;;;;;;;22.05;41.09;101352.31;5053926;28;20435;-65
2023/05/01 09:36:29;;;;;;;11.15;6.20;;;;;;;21.82;41.44;101340.41;5053647;28;19913;-65
2023/05/01 09:38:55;;;;;;;10.95;6.10;;;;;;;21.82;42.53;101356.56;5053518;28;20025;-65
2023/05/01 09:41:21;;;;;;;9.98;5.85;;;;;;;21.88;42.69;101348.28;5053059;28;20112;-63
2023/05/01 09:43:55;;;;;;;11.23;6.25;;;;;;;21.99;42.40;101346.19;5035854;28;20128;-65
2023/05/01 09:46:22;;;;;;;10.23;6.63;;;;;;;22.12;42.04;101351.22;5035476;28;20086;-63
2023/05/01 09:48:58;;;;;;;12.68;7.03;;;;;;;22.21;41.93;101351.88;5053415;28;20104;-63
2023/05/01 09:51:28;;;;;;;13.15;6.85;;;;;;;22.29;41.55;101345.38;5053010;28;20032;-65
2023/05/01 09:54:01;;;;;;;13.00;6.97;;;;;;;22.53;41.69;101350.03;5035389;28;20421;-64
2023/05/01 09:56:30;;;;;;;10.40;7.15;;;;;;;22.61;42.12;101352.47;5035426;28;20099;-64
2023/05/01 09:59:01;;;;;;;12.77;7.28;;;;;;;22.99;40.84;101351.28;5051143;28;20021;-64
2023/05/01 10:01:41;;;;;;;9.60;6.45;;;;;;;23.49;41.22;101356.78;5053188;28;20466;-64
2023/05/01 10:04:10;;;;;;;9.70;6.60;;;;;;;23.77;38.91;101356.75;5034712;28;20029;-64
2023/05/01 10:06:36;;;;;;;11.63;6.55;;;;;;;23.95;37.07;101366.88;5052826;28;20036;-64
2023/05/01 10:09:03;;;;;;;10.25;6.88;;;;;;;24.09;38.51;101355.53;5053248;28;20033;-63
2023/05/01 10:11:29;;;;;;;12.88;7.20;;;;;;;23.91;37.66;101356.22;5052916;28;20087;-64
2023/05/01 10:14:08;;;;;;;11.52;6.72;;;;;;;24.01;39.36;101362.16;5053106;28;20028;-64
2023/05/01 10:16:36;;;;;;;12.73;6.97;;;;;;;24.04;39.37;101354.84;5053192;28;20033;-64
2023/05/01 10:19:03;;;;;;;10.23;6.38;;;;;;;24.12;38.53;101357.25;5018738;28;20025;-64
2023/05/01 10:21:32;;;;;;;9.98;6.57;;;;;;;24.05;39.26;101353.03;5053157;28;20033;-64
2023/05/01 10:23:59;;;;;;;10.75;6.22;;;;;;;24.11;37.50;101350.06;5052579;28;20492;-64
2023/05/01 10:26:25;;;;;;;12.35;6.80;;;;;;;23.78;38.03;101363.91;5050771;28;20363;-63
2023/05/01 10:28:51;;;;;;;9.02;6.13;;;;;;;23.89;39.22;101366.19;5051499;28;20025;-63
2023/05/01 10:31:17;;;;;;;12.38;6.28;;;;;;;23.82;38.76;101359.28;5051109;28;20067;-63
2023/05/01 10:33:43;;;;;;;11.63;6.30;;;;;;;23.87;38.25;101355.47;5051338;28;20029;-64
2023/05/01 10:36:16;;;;;;;10.25;6.10;;;;;;;23.88;38.36;101359.91;5051790;28;20068;-64
2023/05/01 10:38:47;;;;;;;8.02;6.07;;;;;;;23.76;38.74;101368.44;5057398;28;20035;-63
2023/05/01 10:41:13;;;;;;;11.32;6.65;;;;;;;23.78;38.05;101358.50;5058048;28;20071;-63
2023/05/01 10:43:38;;;;;;;14.15;7.00;;;;;;;23.73;37.48;101361.38;5059360;28;20049;-64
2023/05/01 10:46:06;;;;;;;8.77;6.30;;;;;;;23.76;37.89;101352.25;5059346;28;20494;-63
2023/05/01 10:48:38;;;;;;;9.50;6.60;;;;;;;23.88;38.31;101351.81;5059380;28;20024;-63
2023/05/01 10:51:14;;;;;;;10.50;6.93;;;;;;;23.95;39.04;101356.06;5059150;28;20104;-64
2023/05/01 10:53:45;;;;;;;10.43;6.80;;;;;;;24.26;39.68;101351.34;5059411;28;20037;-64
2023/05/01 10:56:24;;;;;;;10.27;6.28;;;;;;;24.42;38.54;101355.25;5059535;28;20052;-64
2023/05/01 10:58:59;;;;;;;9.35;6.72;;;;;;;24.13;38.85;101354.50;5059297;28;20138;-64
2023/05/01 11:01:35;;;;;;;11.50;6.57;;;;;;;24.19;38.68;101358.78;5059156;28;20432;-64
2023/05/01 11:04:07;;;;;;;11.98;6.47;;;;;;;24.11;38.30;101353.69;5059018;28;20033;-64
2023/05/01 11:06:33;;;;;;;11.98;6.97;;;;;;;23.91;38.41;101367.91;5059535;28;20116;-64
2023/05/01 11:08:59;;;;;;;12.50;7.10;;;;;;;23.75;38.34;101369.38;5059073;28;20033;-63
2023/05/01 11:11:25;;;;;;;10.00;6.45;;;;;;;23.76;39.33;101363.03;5059202;28;20021;-64
2023/05/01 11:14:02;;;;;;;12.18;7.18;;;;;;;23.36;39.15;101367.13;5059073;28;20075;-63
2023/05/01 11:16:38;;;;;;;10.23;6.97;;;;;;;23.37;38.58;101365.28;5059066;28;20029;-64
2023/05/01 11:19:04;;;;;;;10.63;6.85;;;;;;;23.28;39.62;101361.09;5059163;28;20428;-63
2023/05/01 11:21:32;;;;;;;12.20;7.00;;;;;;;23.40;39.34;101371.47;5058970;28;20054;-63
2023/05/01 11:24:05;;;;;;;15.68;7.47;;;;;;;23.52;39.98;101364.78;5059167;28;20417;-64